Aeroporto :
LOGIN :

Iscrizione | Disclaimer

   EN    FR    IT 

 










Sommario :    VFR   VFR Marginale   IFR   IFR Intensivo   IFR Molto Intensivo
Visibilità : 
Base nubi : 
>= 8 km
>= 3000ft
5 / 8 km
1000 / 3000 ft
1500m / 5 km
500 / 1000 ft
800 / 1500m
200 / 500 ft
< 800m
< 200 ft
Simboli :   Temporali  Nebbia  Neve Forte  Precipitazioni Forti  Vento > 20 kt
SIGMETs :   Varie  Temporali  Ghiacco  Turbolenza  Onda orograficha  Ceneri Vulcaniche






- Altitudine del aeroporto : 1411 ft
- Codice IATA : GVA


LSGG - Genève Cointrin

ULTIMO METAR :
  • 202150Z AUTO VRB02KT 9999 VCSH FEW092 FEW///TCU 24/16 Q1009 NOSIG

METARs OBSOLETI :
  • 202120Z AUTO 13003KT 100V200 9999 VCSH FEW///CB 24/15 Q1009 NOSIG
  • 202050Z AUTO VRB03KT 9999 VCSH NCD 25/15 Q1009 NOSIG
  • 202020Z AUTO VRB03KT 9999 VCSH NCD 26/16 Q1009 NOSIG
  • 201950Z AUTO 28003KT 240V330 9999 VCSH NCD 26/14 Q1009 TEMPO SHRA
  • 201920Z AUTO VRB02KT CAVOK 25/15 Q1009 TEMPO SHRA
  • 201850Z AUTO 07002KT CAVOK 26/13 Q1009 TEMPO SHRA
  • 201820Z AUTO VRB02KT 9999 NCD 27/14 Q1009 NOSIG
  • 201750Z AUTO 02004KT CAVOK 27/15 Q1008 NOSIG
  • 201720Z AUTO 03003KT CAVOK 29/16 Q1008 NOSIG

TAF TAF LSGG
Valido dal 20 a 21 ore il 22 a 03 ore UTC


202025Z 2021/2203 VRB02KT 9999 SCT090 TX22/2115Z TN18/2104Z
PROB40
TEMPO 2021/2103 9999 SHRA SCT050TCU
PROB30
TEMPO 2022/2102 9999 TSRA SCT050CB
PROB40
TEMPO 2108/2118 22010KT SHRA SCT040TCU
ATIS : +41 22 417 40 81



MetMap, La meteo Aeronautica in un colpo d'occhio ! - Copyright ORBIFLY Dicembre 2007 - Disclaimer

ORBIFLY MET'MAP TEAM :

Programmazione e sviluppo : Alexandra Zaïnal
Concezione : Baudouin d'Aumeries
Supporto tecnico e logistico : Manuel Goepfert
Aiuto : Marc-Olivier Méhu
Aiuto per la traduzione : Arnaldo La Scala




FONTI E CREDITI :

   NOAA